San Jose del Cabo (SJD/MMSD)

Map

Destinations

Information

Location
San Jose del Cabo, Baja California Sur, Mexico
Local Time
20:35 / 8:35 pm
GMT Time
03:35 / 3:35 am
Gates
Unassigned
No FAA reported delays
METAR MMSD 250246Z 36010KT 8SM SKC 30/13 A2978 RMK SLP071 52018 959
TAF TAF MMSD 241639Z 2418/2518 14012KT P6SM SKC FM250600 34010KT P6SM BKN250